createdAt,value
2019-03-27T00:00:23.459Z,11.17
2019-03-27T00:02:52.901Z,11.47
2019-03-27T00:05:22.402Z,11.53
2019-03-27T00:07:51.841Z,12.03
2019-03-27T00:10:21.317Z,10.70
2019-03-27T00:12:50.767Z,10.70
2019-03-27T00:15:20.248Z,10.93
2019-03-27T00:17:49.721Z,10.43
2019-03-27T00:20:19.185Z,11.30
2019-03-27T00:22:48.632Z,10.07
2019-03-27T00:25:18.105Z,9.20
2019-03-27T00:27:47.573Z,10.37
2019-03-27T00:30:17.300Z,9.87
2019-03-27T00:32:46.741Z,10.73
2019-03-27T00:35:16.245Z,10.07
2019-03-27T00:37:45.685Z,9.90
2019-03-27T00:40:15.230Z,9.83
2019-03-27T00:42:44.669Z,10.73
2019-03-27T00:45:25.775Z,10.07
2019-03-27T00:47:45.305Z,10.00
2019-03-27T00:50:14.775Z,9.70
2019-03-27T00:52:44.226Z,10.00
2019-03-27T00:55:14.109Z,10.23
2019-03-27T00:57:43.558Z,10.77
2019-03-27T01:00:19.048Z,10.77
2019-03-27T01:02:48.501Z,10.90
2019-03-27T01:05:17.991Z,9.83
2019-03-27T01:07:47.533Z,10.27
2019-03-27T01:10:17.096Z,10.90
2019-03-27T01:12:46.586Z,10.43
2019-03-27T01:15:17.001Z,9.97
2019-03-27T01:17:46.476Z,10.77
2019-03-27T01:20:15.937Z,9.90
2019-03-27T01:22:45.586Z,10.50
2019-03-27T01:25:15.054Z,10.43
2019-03-27T01:27:44.544Z,10.00
2019-03-27T01:30:14.122Z,9.67
2019-03-27T01:32:43.608Z,10.67
2019-03-27T01:35:13.118Z,10.03
2019-03-27T01:37:42.599Z,10.97
2019-03-27T01:40:12.109Z,11.43
2019-03-27T01:42:41.605Z,9.97
2019-03-27T01:45:11.389Z,11.07
2019-03-27T01:47:40.868Z,10.70
2019-03-27T01:50:10.857Z,10.23
2019-03-27T01:52:40.330Z,10.93
2019-03-27T01:55:09.947Z,11.60
2019-03-27T01:57:39.437Z,11.83
2019-03-27T02:00:09.214Z,10.73
2019-03-27T02:02:38.766Z,11.43
2019-03-27T02:05:08.774Z,12.37
2019-03-27T02:07:38.233Z,11.90
2019-03-27T02:10:08.321Z,11.60
2019-03-27T02:12:37.794Z,12.10
2019-03-27T02:15:10.166Z,11.70
2019-03-27T02:17:39.671Z,11.77
2019-03-27T02:20:09.350Z,12.33
2019-03-27T02:22:38.826Z,11.57
2019-03-27T02:25:08.416Z,11.77
2019-03-27T02:27:37.888Z,13.57
2019-03-27T02:30:08.273Z,13.20
2019-03-27T02:32:37.750Z,13.27
2019-03-27T02:35:07.364Z,13.77
2019-03-27T02:37:36.810Z,14.80
2019-03-27T02:40:07.593Z,14.93
2019-03-27T02:42:38.162Z,14.80
2019-03-27T02:45:07.855Z,16.23
2019-03-27T02:47:37.325Z,16.07
2019-03-27T02:50:07.827Z,15.67
2019-03-27T02:52:37.308Z,17.20
2019-03-27T02:55:07.763Z,17.03
2019-03-27T02:57:37.208Z,16.70
2019-03-27T03:00:09.485Z,16.83
2019-03-27T03:02:39.042Z,17.87
2019-03-27T03:05:09.413Z,18.10
2019-03-27T03:07:38.885Z,17.30
2019-03-27T03:10:09.484Z,18.23
2019-03-27T03:12:38.957Z,18.37
2019-03-27T03:15:10.268Z,19.17
2019-03-27T03:17:39.791Z,18.20
2019-03-27T03:20:09.601Z,18.97
2019-03-27T03:22:39.057Z,19.80
2019-03-27T03:25:09.403Z,19.00
2019-03-27T03:27:38.853Z,23.03
2019-03-27T03:30:10.370Z,20.43
2019-03-27T03:32:39.921Z,21.03
2019-03-27T03:35:10.057Z,21.37
2019-03-27T03:37:39.474Z,21.37
2019-03-27T03:40:09.692Z,22.17
2019-03-27T03:42:39.193Z,22.63
2019-03-27T03:45:09.005Z,22.93
2019-03-27T03:47:38.453Z,21.87
2019-03-27T03:50:09.827Z,21.73
2019-03-27T03:52:39.353Z,22.97
2019-03-27T03:55:08.886Z,22.83
2019-03-27T03:57:38.685Z,23.33
2019-03-27T04:00:09.375Z,23.97
2019-03-27T04:02:39.963Z,24.03
2019-03-27T04:05:12.521Z,24.60
2019-03-27T04:07:41.971Z,25.20
2019-03-27T04:10:11.518Z,24.47
2019-03-27T04:12:40.968Z,25.57
2019-03-27T04:15:10.569Z,26.50
2019-03-27T04:17:40.022Z,26.87
2019-03-27T04:20:09.629Z,25.50
2019-03-27T04:22:39.074Z,26.87
2019-03-27T04:25:08.672Z,25.47
2019-03-27T04:27:39.185Z,26.50
2019-03-27T04:30:08.998Z,27.00
2019-03-27T04:32:38.445Z,25.50
2019-03-27T04:35:07.991Z,24.57
2019-03-27T04:37:37.445Z,27.53
2019-03-27T04:40:07.151Z,27.03
2019-03-27T04:42:36.593Z,28.50
2019-03-27T04:45:06.330Z,28.40
2019-03-27T04:47:35.772Z,27.87
2019-03-27T04:50:06.819Z,30.47
2019-03-27T04:52:36.281Z,28.40
2019-03-27T04:55:06.685Z,30.17
2019-03-27T04:57:36.140Z,32.40
2019-03-27T05:00:07.654Z,29.80
2019-03-27T05:02:37.117Z,31.47
2019-03-27T05:05:07.810Z,31.10
2019-03-27T05:07:37.268Z,29.90
2019-03-27T05:10:07.092Z,33.43
2019-03-27T05:12:38.685Z,33.97
2019-03-27T05:15:08.494Z,31.53
2019-03-27T05:17:45.968Z,33.10
2019-03-27T05:20:09.486Z,35.20
2019-03-27T05:22:39.015Z,35.60
2019-03-27T05:25:08.667Z,34.37
2019-03-27T05:27:38.125Z,34.60
2019-03-27T05:30:08.243Z,34.63
2019-03-27T05:32:37.698Z,33.87
2019-03-27T05:35:07.543Z,33.47
2019-03-27T05:37:37.003Z,32.53
2019-03-27T05:40:08.019Z,34.20
2019-03-27T05:42:37.478Z,34.33
2019-03-27T05:45:07.105Z,35.10
2019-03-27T05:47:36.556Z,35.37
2019-03-27T05:50:06.577Z,35.63
2019-03-27T05:52:36.036Z,30.37
2019-03-27T05:55:06.248Z,32.13
2019-03-27T05:57:35.768Z,27.60
2019-03-27T06:00:06.587Z,30.50
2019-03-27T06:02:36.043Z,27.73
2019-03-27T06:05:05.768Z,27.03
2019-03-27T06:07:35.225Z,28.00
2019-03-27T06:10:05.835Z,27.43
2019-03-27T06:12:36.259Z,27.30
2019-03-27T06:15:06.775Z,25.57
2019-03-27T06:17:36.227Z,23.73
2019-03-27T06:20:07.043Z,24.20
2019-03-27T06:22:36.498Z,25.27
2019-03-27T06:25:07.688Z,23.17
2019-03-27T06:27:37.143Z,21.97
2019-03-27T06:30:07.463Z,19.60
2019-03-27T06:32:37.150Z,22.70
2019-03-27T06:35:07.966Z,21.07
2019-03-27T06:37:37.423Z,19.27
2019-03-27T06:40:07.342Z,21.23
2019-03-27T06:42:36.874Z,18.77
2019-03-27T06:45:08.769Z,18.30
2019-03-27T06:47:38.214Z,20.47
2019-03-27T06:50:08.027Z,19.93
2019-03-27T06:52:37.479Z,18.60
2019-03-27T06:55:08.308Z,17.90
2019-03-27T06:57:37.763Z,17.90
2019-03-27T07:00:09.479Z,16.00
2019-03-27T07:02:38.933Z,16.97
2019-03-27T07:05:08.955Z,18.53
2019-03-27T07:07:38.420Z,17.23
2019-03-27T07:10:08.234Z,19.03
2019-03-27T07:12:37.690Z,18.27
2019-03-27T07:15:07.576Z,19.90
2019-03-27T07:17:37.035Z,19.57
2019-03-27T07:20:07.747Z,18.17
2019-03-27T07:22:38.366Z,19.33
2019-03-27T07:25:08.590Z,19.53
2019-03-27T07:27:38.052Z,19.63
2019-03-27T07:30:08.063Z,18.20
2019-03-27T07:32:37.529Z,20.17
2019-03-27T07:35:08.633Z,18.97
2019-03-27T07:37:38.090Z,19.17
2019-03-27T07:40:08.315Z,18.33
2019-03-27T07:42:37.840Z,17.97
2019-03-27T07:45:08.654Z,15.13
2019-03-27T07:47:38.126Z,15.57
2019-03-27T07:50:08.796Z,14.13
2019-03-27T07:52:38.315Z,13.23
2019-03-27T07:55:18.753Z,14.43
2019-03-27T07:57:38.940Z,13.73
2019-03-27T08:00:17.358Z,13.97
2019-03-27T08:02:46.814Z,13.27
2019-03-27T08:05:16.296Z,13.33
2019-03-27T08:07:45.754Z,13.13
2019-03-27T08:10:15.306Z,13.50
2019-03-27T08:12:44.761Z,15.20
2019-03-27T08:15:14.779Z,14.77
2019-03-27T08:17:44.235Z,14.40
2019-03-27T08:20:17.030Z,15.63
2019-03-27T08:22:46.485Z,15.63
2019-03-27T08:25:16.224Z,14.23
2019-03-27T08:27:45.680Z,13.80
2019-03-27T08:30:16.002Z,12.97
2019-03-27T08:32:45.549Z,14.10
2019-03-27T08:35:16.555Z,12.87
2019-03-27T08:37:46.034Z,14.77
2019-03-27T08:40:15.726Z,12.80
2019-03-27T08:42:45.202Z,14.00
2019-03-27T08:45:14.891Z,14.47
2019-03-27T08:47:44.380Z,14.20
2019-03-27T08:50:14.107Z,13.00
2019-03-27T08:52:43.590Z,14.63
2019-03-27T08:55:13.967Z,12.13
2019-03-27T08:57:43.477Z,13.23
2019-03-27T09:00:13.875Z,13.73
2019-03-27T09:02:43.359Z,13.10
2019-03-27T09:05:12.883Z,12.00
2019-03-27T09:07:42.367Z,12.93
2019-03-27T09:10:13.331Z,11.00
2019-03-27T09:12:42.809Z,10.73
2019-03-27T09:15:12.508Z,11.47
2019-03-27T09:17:41.978Z,9.77
2019-03-27T09:20:11.570Z,11.63
2019-03-27T09:22:41.047Z,11.20
2019-03-27T09:25:11.146Z,11.53
2019-03-27T09:27:40.631Z,11.47
2019-03-27T09:30:12.431Z,12.07
2019-03-27T09:32:42.055Z,11.27
2019-03-27T09:35:11.639Z,10.97
2019-03-27T09:37:41.114Z,9.93
2019-03-27T09:40:11.013Z,10.00
2019-03-27T09:42:40.494Z,9.73
2019-03-27T09:45:10.483Z,9.57
2019-03-27T09:47:39.964Z,9.70
2019-03-27T09:50:09.657Z,8.60
2019-03-27T09:52:39.130Z,8.67
2019-03-27T09:55:08.736Z,9.50
2019-03-27T09:57:38.219Z,8.77
2019-03-27T10:00:09.116Z,9.13
2019-03-27T10:02:38.607Z,9.97
2019-03-27T10:05:08.199Z,8.93
2019-03-27T10:07:37.681Z,9.37
2019-03-27T10:10:07.768Z,8.13
2019-03-27T10:12:38.372Z,8.10
2019-03-27T10:15:08.635Z,8.40
2019-03-27T10:17:38.116Z,8.90
2019-03-27T10:20:07.951Z,7.63
2019-03-27T10:22:37.434Z,8.27
2019-03-27T10:25:08.507Z,8.53
2019-03-27T10:27:37.983Z,7.27
2019-03-27T10:30:09.384Z,7.67
2019-03-27T10:32:38.939Z,7.60
2019-03-27T10:35:08.630Z,8.00
2019-03-27T10:37:38.103Z,7.03
2019-03-27T10:40:08.107Z,6.43
2019-03-27T10:42:38.652Z,7.07
2019-03-27T10:45:09.150Z,6.93
2019-03-27T10:47:38.626Z,7.17
2019-03-27T10:50:17.442Z,7.40
2019-03-27T10:52:39.629Z,6.90
2019-03-27T10:55:09.172Z,6.90
2019-03-27T10:57:38.650Z,6.67
2019-03-27T11:00:10.047Z,6.73
2019-03-27T11:02:39.794Z,6.80
2019-03-27T11:05:09.598Z,6.37
2019-03-27T11:07:39.080Z,5.93
2019-03-27T11:10:09.073Z,5.50
2019-03-27T11:12:38.623Z,5.80
2019-03-27T11:15:09.020Z,5.83
2019-03-27T11:17:38.498Z,5.37
2019-03-27T11:20:08.491Z,5.53
2019-03-27T11:22:37.970Z,5.03
2019-03-27T11:25:07.781Z,5.67
2019-03-27T11:27:37.254Z,5.27
2019-03-27T11:30:07.848Z,4.73
2019-03-27T11:32:37.336Z,4.70
2019-03-27T11:35:07.158Z,4.20
2019-03-27T11:37:36.646Z,4.37
2019-03-27T11:40:06.551Z,5.37
2019-03-27T11:42:36.023Z,4.60
2019-03-27T11:45:07.527Z,4.80
2019-03-27T11:47:37.005Z,4.20
2019-03-27T11:50:09.855Z,5.17
2019-03-27T11:52:39.327Z,4.50
2019-03-27T11:55:09.031Z,4.40
2019-03-27T11:57:38.508Z,3.87
2019-03-27T12:00:09.907Z,4.30
2019-03-27T12:02:39.348Z,3.47
2019-03-27T12:05:09.264Z,3.70
2019-03-27T12:07:38.714Z,3.40
2019-03-27T12:10:08.339Z,3.80
2019-03-27T12:12:37.796Z,3.53
2019-03-27T12:15:08.916Z,3.53
2019-03-27T12:17:38.445Z,3.47
2019-03-27T12:20:08.246Z,3.53
2019-03-27T12:22:37.782Z,2.83
2019-03-27T12:25:07.601Z,3.13
2019-03-27T12:27:37.056Z,3.70
2019-03-27T12:30:08.165Z,2.50
2019-03-27T12:32:37.615Z,3.20
2019-03-27T12:35:07.234Z,2.50
2019-03-27T12:37:36.691Z,2.53
2019-03-27T12:40:11.425Z,2.83
2019-03-27T12:42:37.481Z,2.70
2019-03-27T12:45:08.670Z,2.77
2019-03-27T12:47:38.131Z,2.33
2019-03-27T12:50:10.846Z,2.57
2019-03-27T12:52:40.287Z,2.50
2019-03-27T12:55:10.027Z,2.60
2019-03-27T12:57:39.483Z,2.60
2019-03-27T13:00:10.507Z,2.87
2019-03-27T13:02:39.958Z,2.27
2019-03-27T13:05:09.507Z,3.50
2019-03-27T13:07:49.465Z,2.93
2019-03-27T13:10:10.191Z,2.87
2019-03-27T13:12:39.642Z,2.53
2019-03-27T13:15:09.749Z,2.87
2019-03-27T13:17:39.201Z,3.10
2019-03-27T13:20:10.119Z,2.70
2019-03-27T13:22:39.573Z,2.60
2019-03-27T13:25:09.684Z,2.63
2019-03-27T13:27:40.687Z,2.63
2019-03-27T13:30:10.799Z,2.53
2019-03-27T13:32:40.249Z,2.60
2019-03-27T13:35:10.998Z,3.57
2019-03-27T13:37:40.457Z,2.90
2019-03-27T13:40:10.663Z,3.03
2019-03-27T13:42:40.182Z,2.63
2019-03-27T13:45:10.329Z,3.17
2019-03-27T13:47:39.823Z,2.90
2019-03-27T13:50:13.203Z,2.73
2019-03-27T13:52:42.827Z,2.53
2019-03-27T13:55:12.575Z,2.60
2019-03-27T13:57:42.100Z,2.80
2019-03-27T14:00:14.188Z,2.90
2019-03-27T14:02:43.648Z,3.17
2019-03-27T14:05:14.322Z,2.50
2019-03-27T14:07:43.847Z,3.23
2019-03-27T14:10:13.967Z,3.30
2019-03-27T14:12:43.417Z,2.57
2019-03-27T14:15:13.833Z,2.73
2019-03-27T14:17:43.352Z,2.63
2019-03-27T14:20:14.133Z,2.47
2019-03-27T14:22:43.579Z,2.70
2019-03-27T14:25:13.590Z,2.97
2019-03-27T14:27:45.356Z,2.87
2019-03-27T14:30:16.746Z,2.80
2019-03-27T14:32:46.198Z,2.90
2019-03-27T14:35:16.352Z,2.27
2019-03-27T14:37:45.807Z,2.87
2019-03-27T14:40:15.352Z,2.60
2019-03-27T14:42:44.807Z,3.77
2019-03-27T14:45:14.360Z,2.70
2019-03-27T14:47:43.811Z,2.63
2019-03-27T14:50:13.423Z,2.47
2019-03-27T14:52:42.871Z,2.80
2019-03-27T14:55:12.492Z,2.70
2019-03-27T14:57:41.938Z,2.57
2019-03-27T15:00:12.129Z,2.53
2019-03-27T15:02:41.651Z,2.30
2019-03-27T15:05:11.475Z,2.23
2019-03-27T15:07:40.930Z,2.13
2019-03-27T15:10:10.747Z,2.43
2019-03-27T15:12:40.204Z,2.17
2019-03-27T15:15:11.496Z,2.60
2019-03-27T15:17:41.110Z,2.27
2019-03-27T15:20:10.829Z,2.23
2019-03-27T15:22:41.428Z,2.27
2019-03-27T15:25:11.235Z,2.03
2019-03-27T15:27:40.686Z,2.30
2019-03-27T15:30:13.219Z,2.10
2019-03-27T15:32:43.818Z,2.90
2019-03-27T15:35:13.372Z,2.20
2019-03-27T15:37:42.818Z,2.17
2019-03-27T15:40:12.837Z,3.43
2019-03-27T15:42:42.503Z,2.30
2019-03-27T15:45:12.003Z,2.53
2019-03-27T15:47:41.454Z,2.73
2019-03-27T15:50:11.171Z,2.57
2019-03-27T15:52:40.623Z,2.97
2019-03-27T15:55:10.103Z,3.00
2019-03-27T15:57:40.802Z,2.70
2019-03-27T16:00:11.491Z,2.70
2019-03-27T16:02:41.184Z,2.60
2019-03-27T16:05:10.816Z,2.70
2019-03-27T16:07:40.275Z,2.70
2019-03-27T16:10:10.963Z,3.50
2019-03-27T16:12:40.448Z,3.03
2019-03-27T16:15:10.408Z,2.53
2019-03-27T16:17:40.950Z,3.20
2019-03-27T16:20:10.944Z,3.07
2019-03-27T16:22:50.542Z,3.77
2019-03-27T16:25:16.660Z,3.53
2019-03-27T16:27:47.729Z,3.23
2019-03-27T16:30:18.913Z,3.77
2019-03-27T16:32:48.387Z,4.00
2019-03-27T16:35:17.836Z,4.10
2019-03-27T16:37:47.322Z,4.00
2019-03-27T16:40:19.850Z,4.67
2019-03-27T16:42:49.331Z,5.07
2019-03-27T16:45:18.856Z,5.03
2019-03-27T16:47:48.398Z,5.00
2019-03-27T16:50:17.859Z,4.60
2019-03-27T16:52:47.338Z,4.87
2019-03-27T16:55:16.867Z,5.20
2019-03-27T16:57:46.335Z,4.73
2019-03-27T17:00:16.039Z,4.37
2019-03-27T17:02:45.519Z,4.80
2019-03-27T17:05:15.952Z,4.50
2019-03-27T17:07:45.494Z,5.13
2019-03-27T17:10:14.950Z,4.80
2019-03-27T17:12:44.432Z,4.80
2019-03-27T17:15:14.435Z,4.63
2019-03-27T17:17:43.904Z,4.90
2019-03-27T17:20:13.588Z,4.60
2019-03-27T17:22:43.068Z,4.10
2019-03-27T17:25:12.663Z,4.60
2019-03-27T17:27:42.149Z,4.60
2019-03-27T17:30:12.162Z,4.43
2019-03-27T17:32:41.605Z,4.90
2019-03-27T17:35:11.078Z,4.50
2019-03-27T17:37:40.643Z,4.60
2019-03-27T17:40:10.669Z,5.10
2019-03-27T17:42:40.224Z,4.40
2019-03-27T17:45:09.656Z,4.37
2019-03-27T17:47:39.138Z,4.97
2019-03-27T17:50:09.140Z,5.60
2019-03-27T17:52:38.710Z,4.80
2019-03-27T17:55:08.311Z,4.70
2019-03-27T17:57:37.791Z,5.47
2019-03-27T18:00:08.953Z,5.73
2019-03-27T18:02:38.487Z,5.17
2019-03-27T18:05:08.076Z,3.97
2019-03-27T18:07:37.547Z,4.50
2019-03-27T18:10:07.539Z,4.30
2019-03-27T18:12:37.007Z,5.43
2019-03-27T18:15:08.895Z,4.80
2019-03-27T18:17:38.377Z,5.57
2019-03-27T18:20:07.970Z,5.00
2019-03-27T18:22:37.437Z,5.30
2019-03-27T18:25:07.130Z,5.30
2019-03-27T18:27:36.601Z,5.53
2019-03-27T18:30:07.847Z,5.70
2019-03-27T18:32:37.387Z,4.77
2019-03-27T18:35:07.679Z,5.03
2019-03-27T18:37:38.539Z,5.00
2019-03-27T18:40:08.635Z,4.43
2019-03-27T18:42:38.103Z,4.10
2019-03-27T18:45:07.888Z,4.53
2019-03-27T18:47:38.100Z,5.13
2019-03-27T18:50:08.278Z,4.63
2019-03-27T18:52:37.746Z,4.53
2019-03-27T18:55:07.726Z,4.37
2019-03-27T18:57:38.171Z,5.03
2019-03-27T19:00:08.871Z,4.87
2019-03-27T19:02:38.416Z,4.53
2019-03-27T19:05:08.506Z,4.83
2019-03-27T19:07:39.132Z,5.83
2019-03-27T19:10:09.990Z,5.50
2019-03-27T19:12:39.460Z,5.80
2019-03-27T19:15:10.171Z,4.53
2019-03-27T19:17:39.618Z,4.27
2019-03-27T19:20:09.592Z,4.67
2019-03-27T19:22:38.981Z,5.67
2019-03-27T19:25:08.624Z,4.50
2019-03-27T19:27:38.143Z,5.17
2019-03-27T19:30:09.252Z,4.40
2019-03-27T19:32:38.703Z,5.17
2019-03-27T19:35:08.250Z,4.87
2019-03-27T19:37:37.775Z,4.83
2019-03-27T19:40:07.382Z,4.80
2019-03-27T19:42:36.828Z,5.40
2019-03-27T19:45:06.535Z,5.63
2019-03-27T19:47:35.986Z,4.50
2019-03-27T19:50:07.504Z,5.37
2019-03-27T19:55:19.362Z,5.80
2019-03-27T19:57:48.826Z,5.53
2019-03-27T20:00:19.054Z,6.37
2019-03-27T20:02:48.511Z,5.67
2019-03-27T20:05:17.985Z,5.30
2019-03-27T20:07:47.439Z,5.97
2019-03-27T20:10:17.266Z,5.03
2019-03-27T20:12:46.716Z,5.70
2019-03-27T20:15:16.254Z,6.07
2019-03-27T20:17:45.757Z,4.80
2019-03-27T20:20:15.362Z,5.33
2019-03-27T20:22:44.889Z,5.43
2019-03-27T20:25:14.905Z,7.33
2019-03-27T20:27:45.244Z,5.20
2019-03-27T20:30:17.847Z,5.60
2019-03-27T20:32:47.362Z,6.37
2019-03-27T20:35:16.829Z,5.80
2019-03-27T20:37:46.282Z,5.87
2019-03-27T20:40:16.493Z,6.50
2019-03-27T20:42:46.021Z,6.10
2019-03-27T20:45:15.721Z,7.33
2019-03-27T20:47:45.161Z,6.40
2019-03-27T20:50:14.966Z,6.83
2019-03-27T20:52:44.414Z,7.27
2019-03-27T20:55:14.118Z,7.20
2019-03-27T20:57:43.554Z,7.03
2019-03-27T21:00:13.327Z,7.37
2019-03-27T21:02:42.937Z,7.37
2019-03-27T21:05:12.475Z,7.73
2019-03-27T21:07:41.918Z,7.47
2019-03-27T21:10:11.821Z,8.57
2019-03-27T21:12:41.711Z,8.77
2019-03-27T21:15:11.775Z,8.87
2019-03-27T21:17:41.306Z,8.13
2019-03-27T21:20:11.289Z,8.40
2019-03-27T21:22:40.731Z,8.57
2019-03-27T21:25:10.280Z,8.67
2019-03-27T21:27:39.715Z,10.23
2019-03-27T21:30:11.619Z,9.53
2019-03-27T21:32:41.912Z,9.23
2019-03-27T21:35:11.446Z,10.17
2019-03-27T21:37:40.890Z,9.57
2019-03-27T21:40:11.002Z,9.37
2019-03-27T21:42:40.443Z,9.20
2019-03-27T21:45:11.057Z,9.53
2019-03-27T21:47:40.489Z,9.90
2019-03-27T21:50:10.204Z,9.83
2019-03-27T21:52:39.645Z,10.03
2019-03-27T21:55:22.145Z,10.50
2019-03-27T21:57:40.587Z,9.93
2019-03-27T22:00:10.785Z,9.40
2019-03-27T22:02:40.238Z,10.67
2019-03-27T22:05:09.778Z,11.00
2019-03-27T22:07:39.213Z,10.57
2019-03-27T22:10:08.754Z,10.57
2019-03-27T22:12:38.716Z,10.90
2019-03-27T22:15:08.806Z,10.17
2019-03-27T22:17:38.255Z,9.87
2019-03-27T22:20:08.590Z,11.33
2019-03-27T22:22:38.037Z,11.07
2019-03-27T22:25:08.186Z,10.47
2019-03-27T22:27:37.642Z,11.10
2019-03-27T22:30:07.750Z,10.73
2019-03-27T22:32:37.196Z,10.73
2019-03-27T22:35:07.802Z,11.27
2019-03-27T22:37:37.258Z,11.90
2019-03-27T22:40:07.266Z,10.67
2019-03-27T22:42:36.713Z,11.73
2019-03-27T22:45:07.893Z,11.63
2019-03-27T22:47:37.341Z,11.40
2019-03-27T22:50:08.633Z,12.07
2019-03-27T22:52:38.331Z,12.23
2019-03-27T22:55:10.909Z,12.37
2019-03-27T22:57:40.362Z,11.70
2019-03-27T23:00:13.793Z,12.23
2019-03-27T23:02:44.853Z,12.27
2019-03-27T23:05:14.393Z,13.23
2019-03-27T23:07:43.843Z,12.80
2019-03-27T23:10:13.546Z,12.97
2019-03-27T23:12:43.066Z,13.23
2019-03-27T23:15:12.630Z,13.37
2019-03-27T23:17:42.076Z,14.70
2019-03-27T23:20:11.747Z,15.03
2019-03-27T23:22:41.199Z,15.47
2019-03-27T23:25:12.082Z,14.30
2019-03-27T23:27:41.627Z,15.43
2019-03-27T23:30:11.422Z,15.93
2019-03-27T23:32:40.869Z,15.70
2019-03-27T23:35:10.675Z,16.20
2019-03-27T23:37:40.198Z,15.40
2019-03-27T23:40:10.005Z,15.90
2019-03-27T23:42:39.460Z,16.03
2019-03-27T23:45:09.254Z,16.87
2019-03-27T23:47:38.705Z,17.13
2019-03-27T23:50:09.079Z,16.33
2019-03-27T23:52:38.531Z,17.27
2019-03-27T23:55:08.353Z,16.83
2019-03-27T23:57:37.797Z,16.93
